tititudorancea.com
Station Historical Data
Daily Summary for January 27, 2019 Units:  Metric    English   Both
« Previous Day
Next Day »
Daily Weekly Monthly Yearly Custom
  High: Low: Average:
Temperature: -17.8 °C 12.9 °C 20.2 °C
Dew Point: -17.8 °C 7.1 °C 8.9 °C
Humidity: Humidity % 29 % 51 %
Wind Speed: 0 km/h 0 km/h 12.9 km/h
Wind Gust: 0 km/h - -
Wind:- - SW
Pressure: 0 hPa 1008 hPa -
Precipitation: 0 mm    
Historical Graphs
 
 
Ararat weather Find more about Weather in Ararat, AU


 



 


Tabular Data for January 27, 2019
Time Temperature Dew Point Pressure Wind Wind Speed Wind Gust Humidity Rainfall Rate (Hourly)
-17.8 °C -17.8 °C 0 hPa Calm     Humidity % 0 mm
00:04 17.4 °C 9.1 °C 1008.7 hPa SSW 18.5 km/h 14 km/h 58 % 0 mm
00:07 17.4 °C 9.1 °C 1008.7 hPa SSW 13 km/h 9.7 km/h 58 % 0 mm
00:14 17.5 °C 8.6 °C 1008.7 hPa SSW 13 km/h 7.7 km/h 56 % 0 mm
00:19 17.6 °C 8.7 °C 1008.7 hPa SSW 18.5 km/h 14 km/h 56 % 0 mm
00:24 17.6 °C 8.7 °C 1008.7 hPa SW 25.7 km/h 15 km/h 56 % 0 mm
00:29 17.6 °C 8.7 °C 1008.7 hPa WSW 20.4 km/h 14.3 km/h 56 % 0 mm
00:34 17.6 °C 8.7 °C 1008 hPa SW 20.4 km/h 16.7 km/h 56 % 0 mm
00:39 17.6 °C 8.7 °C 1008.4 hPa SW 22.2 km/h 15.6 km/h 56 % 0 mm
00:44 17.5 °C 8.6 °C 1008 hPa SW 22.2 km/h 15 km/h 56 % 0 mm
00:49 17.4 °C 8.5 °C 1008 hPa SSW 24.1 km/h 12.9 km/h 56 % 0 mm
00:54 17.4 °C 8.5 °C 1009 hPa SSW 16.7 km/h 10.1 km/h 56 % 0 mm
00:59 17.3 °C 8.4 °C 1008.7 hPa SSW 14.5 km/h 6.8 km/h 56 % 0 mm
01:04 17.3 °C 8.4 °C 1009 hPa SSW 14.8 km/h 8.2 km/h 56 % 0 mm
01:09 17.3 °C 8.7 °C 1008.7 hPa SSW 9.3 km/h 6 km/h 57 % 0 mm
01:14 17.2 °C 8.6 °C 1008.7 hPa SSW 13 km/h 7.2 km/h 57 % 0 mm
01:19 17.2 °C 8.6 °C 1008.7 hPa SSW 16.1 km/h 10.3 km/h 57 % 0 mm
01:24 17.1 °C 8.5 °C 1008.7 hPa SSW 11.1 km/h 7.7 km/h 57 % 0 mm
01:29 17.1 °C 8.7 °C 1008.7 hPa North 9.3 km/h 8.7 km/h 58 % 0 mm
01:34 17 °C 8.7 °C 1008.4 hPa SW 18.5 km/h 13.2 km/h 58 % 0 mm
01:39 16.9 °C 8.6 °C 1008.7 hPa SW 13 km/h 8.7 km/h 58 % 0 mm
01:44 16.9 °C 8.6 °C 1008.4 hPa SW 13 km/h 5.5 km/h 58 % 0 mm
01:49 16.9 °C 8.6 °C 1008.4 hPa SSW 11.1 km/h 9.8 km/h 58 % 0 mm
01:54 16.8 °C 8.5 °C 1008.7 hPa SSW 13 km/h 11.3 km/h 58 % 0 mm
01:59 16.8 °C 8.7 °C 1008.7 hPa North 13 km/h 13.2 km/h 59 % 0 mm
02:04 16.7 °C 8.7 °C 1008.4 hPa SSW 20.4 km/h 10.9 km/h 59 % 0 mm
02:09 16.6 °C 8.8 °C 1008 hPa SSW 18.5 km/h 12.9 km/h 60 % 0 mm
02:14 16.5 °C 8.9 °C 1008 hPa SW 14.8 km/h 7.2 km/h 61 % 0 mm
02:19 16.5 °C 9.2 °C 1008 hPa SW 31.5 km/h 14.5 km/h 62 % 0 mm
02:24 16.4 °C 9.1 °C 1008 hPa North 7.4 km/h 5 km/h 62 % 0 mm
02:29 16.4 °C 9.3 °C 1008 hPa SSW 11.1 km/h 5.8 km/h 63 % 0 mm
02:34 16.3 °C 9.2 °C 1008 hPa SSW 14.8 km/h 8 km/h 63 % 0 mm
02:39 16.2 °C 9.4 °C 1008 hPa SSW 11.1 km/h 7.1 km/h 64 % 0 mm
02:44 16.2 °C 9.6 °C 1008 hPa SSW 16.7 km/h 10 km/h 65 % 0 mm
02:49 16.1 °C 9.5 °C 1008.4 hPa SSW 11.1 km/h 9.2 km/h 65 % 0 mm
02:54 16.1 °C 9.5 °C 1008.4 hPa SSW 13 km/h 5.8 km/h 65 % 0 mm
02:59 16.1 °C 9.5 °C 1008.4 hPa SSW 11.3 km/h 7.7 km/h 65 % 0 mm
03:04 16 °C 9.7 °C 1008.4 hPa SSW 13 km/h 5.8 km/h 66 % 0 mm
03:09 15.9 °C 9.6 °C 1008.4 hPa SSW 11.1 km/h 7.6 km/h 66 % 0 mm
03:14 15.9 °C 9.6 °C 1008.4 hPa North 8 km/h 6.1 km/h 66 % 0 mm
03:19 15.9 °C 9.8 °C 1008.7 hPa SSW 8 km/h 6.4 km/h 67 % 0 mm
03:24 15.9 °C 9.8 °C 1008.7 hPa SSW 5.6 km/h 2.9 km/h 67 % 0 mm
03:29 15.8 °C 9.7 °C 1008.7 hPa SSW 3.7 km/h 1.3 km/h 67 % 0 mm
03:34 15.8 °C 9.7 °C 1008.4 hPa SSW 5.6 km/h 5 km/h 67 % 0 mm
03:39 15.7 °C 9.6 °C 1008.4 hPa SSW 8 km/h 5.6 km/h 67 % 0 mm
03:44 15.6 °C 9.7 °C 1008 hPa SSW 14.8 km/h 8.4 km/h 68 % 0 mm
03:49 15.6 °C 9.7 °C 1008.4 hPa SSW 7.4 km/h 2.4 km/h 68 % 0 mm
03:54 15.7 °C 9.8 °C 1008.4 hPa SSW 11.1 km/h 5.8 km/h 68 % 0 mm
03:59 15.6 °C 9.7 °C 1008.4 hPa SSW 5.6 km/h 5 km/h 68 % 0 mm
04:04 15.6 °C 9.7 °C 1008.4 hPa SSW 5.6 km/h 5.5 km/h 68 % 0 mm
04:09 15.5 °C 9.8 °C 1008.4 hPa SSW 6.4 km/h 6.8 km/h 69 % 0 mm
04:14 15.4 °C 9.8 °C 1008.4 hPa SSW 7.4 km/h 5.3 km/h 69 % 0 mm
04:19 15.3 °C 9.9 °C 1008.4 hPa SSW 6.4 km/h 4.3 km/h 70 % 0 mm
04:24 15.2 °C 9.8 °C 1008.4 hPa SSW 5.6 km/h 2.6 km/h 70 % 0 mm
04:29 15.2 °C 9.7 °C 1008.4 hPa SSW 5.6 km/h 2.3 km/h 70 % 0 mm
04:34 15.1 °C 9.8 °C 1008.4 hPa SSW 5.6 km/h 3.7 km/h 71 % 0 mm
04:39 14.9 °C 9.7 °C 1008.4 hPa SSW 5.6 km/h 1 km/h 71 % 0 mm
04:44 14.9 °C 9.7 °C 1008.4 hPa SSW 3.7 km/h 2.6 km/h 71 % 0 mm
04:49 14.8 °C 9.8 °C 1008.4 hPa Calm     72 % 0 mm
04:54 14.7 °C 9.7 °C 1008.7 hPa Calm     72 % 0 mm
04:59 14.6 °C 9.6 °C 1008.4 hPa SSW 3.7 km/h 3.2 km/h 72 % 0 mm
05:04 14.5 °C 9.7 °C 1008 hPa SSW 3.7 km/h 2.4 km/h 73 % 0 mm
05:09 14.4 °C 9.7 °C 1008.4 hPa Calm     73 % 0 mm
05:14 14.3 °C 9.5 °C 1008.4 hPa Calm     73 % 0 mm
05:19 14.2 °C 9.7 °C 1008.4 hPa Calm     74 % 0 mm
05:24 14.1 °C 9.6 °C 1008.4 hPa SSW 3.7 km/h 1 km/h 74 % 0 mm
05:29 13.9 °C 9.6 °C 1008.7 hPa Calm     75 % 0 mm
05:34 13.8 °C 9.6 °C 1008.4 hPa Calm     76 % 0 mm
05:39 13.7 °C 9.8 °C 1008.4 hPa Calm     77 % 0 mm
05:44 13.6 °C 9.6 °C 1008.7 hPa Calm     77 % 0 mm
05:49 13.5 °C 9.7 °C 1009 hPa SSW 5.6 km/h 0.6 km/h 78 % 0 mm
05:54 13.5 °C 9.9 °C 1009 hPa SSW 1.6 km/h 0.6 km/h 79 % 0 mm
05:59 13.6 °C 10 °C 1009 hPa Calm     79 % 0 mm
06:04 13.5 °C 9.7 °C 1009 hPa Calm     78 % 0 mm
06:09 13.4 °C 9.9 °C 1009 hPa Calm     79 % 0 mm
06:14 13.3 °C 9.8 °C 1009 hPa Calm     79 % 0 mm
06:19 13.3 °C 9.7 °C 1009.4 hPa SSW 3.7 km/h 1.1 km/h 79 % 0 mm
06:24 13.2 °C 9.8 °C 1009.4 hPa SSW 1.9 km/h   80 % 0 mm
06:29 13.2 °C 9.8 °C 1009.4 hPa Calm     80 % 0 mm
06:34 13.2 °C 9.8 °C 1009.4 hPa Calm     80 % 0 mm
06:39 13.1 °C 9.7 °C 1009.4 hPa Calm     80 % 0 mm
06:44 12.9 °C 9.6 °C 1009.4 hPa Calm     80 % 0 mm
06:49 12.9 °C 9.5 °C 1009.4 hPa Calm     80 % 0 mm
06:54 12.9 °C 9.8 °C 1009.4 hPa SSW 5.6 km/h 3.4 km/h 81 % 0 mm
09:59 18.6 °C 10.1 °C 1009.7 hPa WSW 9.3 km/h 6.1 km/h 58 % 0 mm
10:04 18.5 °C 9.8 °C 1009.7 hPa WSW 9.3 km/h 4.7 km/h 57 % 0 mm
10:09 18.7 °C 10 °C 1009.7 hPa WSW 5.6 km/h 2.1 km/h 57 % 0 mm
10:14 19.1 °C 9.6 °C 1010 hPa North 14.8 km/h 11.7 km/h 54 % 0 mm
10:19 19.2 °C 9.4 °C 1009.7 hPa West 11.1 km/h 6 km/h 53 % 0 mm
10:24 19.1 °C 9 °C 1009.7 hPa West 9.3 km/h 5.6 km/h 52 % 0 mm
10:29 19.2 °C 9.3 °C 1009.7 hPa West 11.1 km/h 6.1 km/h 53 % 0 mm
10:34 19.2 °C 9.4 °C 1009.7 hPa WSW 3.7 km/h 1.9 km/h 53 % 0 mm
10:39 19.4 °C 9.3 °C 1009.7 hPa West 9.3 km/h 6.9 km/h 52 % 0 mm
10:44 19.6 °C 8.8 °C 1010 hPa WSW 11.1 km/h 5.8 km/h 50 % 0 mm
10:49 19.4 °C 8.7 °C 1010 hPa West 7.4 km/h 4.5 km/h 50 % 0 mm
10:54 19.7 °C 8.4 °C 1010 hPa West 14.8 km/h 6 km/h 48 % 0 mm
10:59 19.9 °C 7.9 °C 1010 hPa West 16.7 km/h 11.3 km/h 46 % 0 mm
11:04 19.9 °C 7.9 °C 1010 hPa West 8 km/h 5.5 km/h 46 % 0 mm
11:09 20.1 °C 8.4 °C 1010 hPa North 3.7 km/h 2.9 km/h 47 % 0 mm
11:14 20.4 °C 8.4 °C 1010 hPa West 7.4 km/h 5.6 km/h 46 % 0 mm
11:19 20.4 °C 8.4 °C 1010 hPa WSW 14.8 km/h 12.9 km/h 46 % 0 mm
11:24 20.2 °C 8.6 °C 1010 hPa WSW 18.5 km/h 12.2 km/h 47 % 0 mm
11:29 20.1 °C 8.4 °C 1010 hPa SW 14.8 km/h 11.4 km/h 47 % 0 mm
11:34 20.2 °C 8.5 °C 1010 hPa SSW 3.7 km/h 3.2 km/h 47 % 0 mm
11:39 20.4 °C 8.4 °C 1010 hPa South 1.9 km/h   46 % 0 mm
11:44 21.2 °C 8.5 °C 1010 hPa SSE 20.9 km/h 8 km/h 44 % 0 mm
11:49 21.4 °C 8.3 °C 1010 hPa SSW 17.7 km/h 13.4 km/h 43 % 0 mm
11:54 21.6 °C 8.2 °C 1010 hPa WSW 14.8 km/h 7.6 km/h 42 % 0 mm
11:59 21.7 °C 7.5 °C 1009.7 hPa North 14.5 km/h 9.7 km/h 40 % 0 mm
12:04 21.4 °C 7.6 °C 1009.7 hPa WNW 3.7 km/h 1.1 km/h 41 % 0 mm
12:09 21.7 °C 7.5 °C 1009.7 hPa WSW 22.5 km/h 13.7 km/h 40 % 0 mm
12:14 22.1 °C 7.9 °C 1009.7 hPa North 14.8 km/h 9.2 km/h 40 % 0 mm
12:19 22.1 °C 7.8 °C 1009.7 hPa WSW 11.1 km/h 8.5 km/h 40 % 0 mm
12:24 22 °C 7.4 °C 1009.7 hPa WNW 14.8 km/h 5.5 km/h 39 % 0 mm
12:29 22.4 °C 7.8 °C 1009.7 hPa WNW 18.5 km/h 10 km/h 39 % 0 mm
12:34 22.5 °C 7.8 °C 1009.7 hPa WNW 11.3 km/h 8 km/h 39 % 0 mm
12:39 22.6 °C 7.9 °C 1009.7 hPa NNW 13 km/h 10 km/h 39 % 0 mm
12:44 22.6 °C 7.9 °C 1010 hPa NNW 11.1 km/h 9.8 km/h 39 % 0 mm
13:04 23.4 °C 7.1 °C 1010 hPa West 11.1 km/h 11.1 km/h 35 % 0 mm
13:09 23.5 °C 7.2 °C 1010 hPa West 8 km/h 7.1 km/h 35 % 0 mm
13:14 23.7 °C 7.7 °C 1010 hPa West 16.7 km/h 14.2 km/h 36 % 0 mm
13:19 23.6 °C 7.2 °C 1009.7 hPa West 16.7 km/h 10.6 km/h 35 % 0 mm
13:24 23.6 °C 7.2 °C 1009.7 hPa North 5.6 km/h 1.1 km/h 35 % 0 mm
13:29 23.5 °C 7.6 °C 1009.7 hPa SW 14.8 km/h 10.3 km/h 36 % 0 mm
13:34 23.6 °C 7.6 °C 1009.7 hPa NW 11.3 km/h 9.3 km/h 36 % 0 mm
13:39 23.8 °C 7.4 °C 1009.7 hPa SW 14.5 km/h 9 km/h 35 % 0 mm
13:44 24.3 °C 7.8 °C 1009.7 hPa North 19.3 km/h 14.8 km/h 35 % 0 mm
13:49 24.2 °C 7.8 °C 1009.7 hPa WNW 16.7 km/h 14.8 km/h 35 % 0 mm
13:54 24.1 °C 7.6 °C 1009.7 hPa North 13 km/h 3.4 km/h 35 % 0 mm
13:59 24.2 °C 8.2 °C 1009.7 hPa North 9.7 km/h 4.5 km/h 36 % 0 mm
14:04 24.2 °C 7.3 °C 1009.7 hPa SSW 18.5 km/h 15.6 km/h 34 % 0 mm
14:09 24.1 °C 7.6 °C 1009.7 hPa SSW 25.7 km/h 14.2 km/h 35 % 0 mm
14:14 24.4 °C 7.9 °C 1009.7 hPa WNW 16.7 km/h 10.5 km/h 35 % 0 mm
14:19 24.7 °C 7.7 °C 1009.7 hPa NW 22.2 km/h 16.6 km/h 34 % 0 mm
14:24 24.7 °C 7.7 °C 1009.4 hPa WSW 18.5 km/h 12.6 km/h 34 % 0 mm
14:29 24.8 °C 7.4 °C 1009.7 hPa West 20.4 km/h 17.2 km/h 33 % 0 mm
14:34 24.9 °C 7.9 °C 1009.7 hPa WSW 20.9 km/h 13 km/h 34 % 0 mm
14:39 24.9 °C 7.5 °C 1009.7 hPa West 5.6 km/h 0.2 km/h 33 % 0 mm
14:44 25 °C 7.6 °C 1009.4 hPa West 14.5 km/h 11.1 km/h 33 % 0 mm
14:49 24.6 °C 7.7 °C 1009.4 hPa West 8 km/h 1.4 km/h 34 % 0 mm
14:54 24.6 °C 7.7 °C 1009.4 hPa WNW 11.1 km/h 4 km/h 34 % 0 mm
14:59 25.1 °C 8.1 °C 1009.4 hPa WNW 5.6 km/h 4.5 km/h 34 % 0 mm
15:04 25.8 °C 8.3 °C 1009.7 hPa WSW 22.2 km/h 13.7 km/h 33 % 0 mm
15:09 25.3 °C 7.8 °C 1009.7 hPa WSW 13 km/h 8.5 km/h 33 % 0 mm
15:14 25.2 °C 7.8 °C 1009.7 hPa SSW 5.6 km/h 6.8 km/h 33 % 0 mm
15:19 25.3 °C 7.4 °C 1009.7 hPa WNW 22.5 km/h 10.8 km/h 32 % 0 mm
15:24 25.4 °C 7.1 °C 1009.7 hPa SW 19.3 km/h 15.1 km/h 31 % 0 mm
15:29 25.4 °C 7.1 °C 1009.7 hPa SSW 22.2 km/h 15.6 km/h 31 % 0 mm
15:34 25.4 °C 7.5 °C 1009.7 hPa SSW 14.8 km/h 10.3 km/h 32 % 0 mm
15:39 25.6 °C 7.2 °C 1009.7 hPa South 19.3 km/h 11.6 km/h 31 % 0 mm
15:44 25.7 °C 7.7 °C 1009.7 hPa WSW 25.9 km/h 14.2 km/h 32 % 0 mm
15:49 25.5 °C 7.6 °C 1009.7 hPa SW 8 km/h 9.7 km/h 32 % 0 mm
15:54 25.6 °C 7.7 °C 1009.7 hPa WSW 11.1 km/h 6.9 km/h 32 % 0 mm
15:59 25.9 °C 7.5 °C 1009.7 hPa SW 5.6 km/h 0.2 km/h 31 % 0 mm
16:04 26.3 °C 7.4 °C 1009.7 hPa SSW 20.4 km/h 12.7 km/h 30 % 0 mm
16:09 25.9 °C 7.4 °C 1009.7 hPa SSW 22.2 km/h 16.6 km/h 31 % 0 mm
16:14 25.7 °C 7.3 °C 1009.7 hPa SSW 16.7 km/h 4 km/h 31 % 0 mm
16:19 26.2 °C 7.7 °C 1009.7 hPa South 18.5 km/h 9.7 km/h 31 % 0 mm
16:24 26.4 °C 7.4 °C 1009.4 hPa South 25.9 km/h 14.6 km/h 30 % 0 mm
16:29 26.3 °C 7.8 °C 1009.4 hPa SSW 13 km/h 8.9 km/h 31 % 0 mm
16:34 26.4 °C 7.4 °C 1009.4 hPa SW 18.5 km/h 8.7 km/h 30 % 0 mm
16:39 26.7 °C 7.7 °C 1009.4 hPa SSE 18.5 km/h 10 km/h 30 % 0 mm
16:44 26.8 °C 7.8 °C 1009.4 hPa SSE 16.7 km/h 10.6 km/h 30 % 0 mm
16:49 26.8 °C 7.8 °C 1009.4 hPa SSW 27.8 km/h 11.7 km/h 30 % 0 mm
16:54 26.7 °C 7.2 °C 1009.4 hPa WSW 14.8 km/h 7.1 km/h 29 % 0 mm
16:59 26.8 °C 7.3 °C 1009.4 hPa WSW 5.6 km/h 5.5 km/h 29 % 0 mm
17:04 26.7 °C 7.7 °C 1009.7 hPa North 24.1 km/h 15.1 km/h 30 % 0 mm
17:09 26.6 °C 7.6 °C 1009.7 hPa WNW 18.5 km/h 12.4 km/h 30 % 0 mm
17:14 26.7 °C 7.7 °C 1009.7 hPa SW 14.5 km/h 9.8 km/h 30 % 0 mm
17:19 26.8 °C 7.7 °C 1009.7 hPa West 18.5 km/h 11.7 km/h 30 % 0 mm
17:24 26.9 °C 7.8 °C 1009.7 hPa West 7.4 km/h 5.3 km/h 30 % 0 mm
17:29 26.9 °C 7.9 °C 1009.7 hPa South 18.5 km/h 11.7 km/h 30 % 0 mm
17:34 27.1 °C 8 °C 1009.7 hPa South 9.3 km/h 4 km/h 30 % 0 mm
17:39 26.9 °C 7.9 °C 1009.7 hPa South 5.6 km/h 1.4 km/h 30 % 0 mm
17:44 26.9 °C 8.3 °C 1009.7 hPa SSW 13 km/h 6.9 km/h 31 % 0 mm
17:49 26.8 °C 8.2 °C 1009.7 hPa SSW 18.5 km/h 10.5 km/h 31 % 0 mm
17:54 26.8 °C 7.7 °C 1009.7 hPa WSW 18.5 km/h 12.9 km/h 30 % 0 mm
17:59 26.8 °C 8.2 °C 1009.7 hPa SSW 19.3 km/h 14.3 km/h 31 % 0 mm
18:04 26.7 °C 8.2 °C 1009.7 hPa SSW 11.1 km/h 3.9 km/h 31 % 0 mm
18:09 26.8 °C 8.3 °C 1009.7 hPa North 13 km/h 3.1 km/h 31 % 0 mm
18:14 26.9 °C 8.4 °C 1009.7 hPa SW 6.4 km/h 3.5 km/h 31 % 0 mm
18:19 26.8 °C 8.7 °C 1009.7 hPa South 18.5 km/h 12.9 km/h 32 % 0 mm
18:24 26.5 °C 8.9 °C 1009.7 hPa South 9.7 km/h 8.9 km/h 33 % 0 mm
18:29 26.3 °C 8.3 °C 1010 hPa SSW 18.5 km/h 14.6 km/h 32 % 0 mm
18:34 26.2 °C 8.7 °C 1010 hPa SSW 14.8 km/h 8.7 km/h 33 % 0 mm
18:39 26.1 °C 8.5 °C 1010 hPa North 14.8 km/h 10.5 km/h 33 % 0 mm
18:44 26.1 °C 8.5 °C 1010 hPa SE 16.7 km/h 4.2 km/h 33 % 0 mm
18:49 26.3 °C 8.8 °C 1010.4 hPa SSW 18.5 km/h 5.8 km/h 33 % 0 mm
18:54 26.3 °C 8.3 °C 1010.4 hPa SSW 16.7 km/h 12.2 km/h 32 % 0 mm
18:59 26.2 °C 8.7 °C 1010.4 hPa South 16.7 km/h 12.4 km/h 33 % 0 mm
19:04 26.3 °C 8.3 °C 1010.4 hPa SSW 18.5 km/h 18.2 km/h 32 % 0 mm
19:09 26.2 °C 8.2 °C 1010.7 hPa SW 16.7 km/h 10.6 km/h 32 % 0 mm
19:14 25.9 °C 8.4 °C 1010.7 hPa South 20.4 km/h 9.3 km/h 33 % 0 mm
19:19 26 °C 8.5 °C 1010.7 hPa SW 20.4 km/h 11.7 km/h 33 % 0 mm
19:24 25.9 °C 8.4 °C 1011.1 hPa SW 18.5 km/h 14.3 km/h 33 % 0 mm
19:29 25.6 °C 8.6 °C 1011.1 hPa SSW 24.1 km/h 19.8 km/h 34 % 0 mm
19:34 25.3 °C 8.8 °C 1011.1 hPa SSW 27.8 km/h 11.3 km/h 35 % 0 mm
19:39 25.3 °C 9.1 °C 1011.1 hPa South 13 km/h 10.9 km/h 36 % 0 mm
19:44 25.2 °C 9.1 °C 1011.4 hPa SSW 22.2 km/h 14.6 km/h 36 % 0 mm
19:49 24.9 °C 9.2 °C 1011.4 hPa SSW 20.4 km/h 7.7 km/h 37 % 0 mm
19:54 24.8 °C 9.2 °C 1011.4 hPa SSW 18.5 km/h 13.2 km/h 37 % 0 mm
19:59 24.7 °C 9.1 °C 1011.4 hPa North 18.5 km/h 12.1 km/h 37 % 0 mm
20:04 24.6 °C 9.3 °C 1011.7 hPa SSW 18.5 km/h 15 km/h 38 % 0 mm
20:09 24.3 °C 9.4 °C 1011.7 hPa North 22.2 km/h 16.3 km/h 39 % 0 mm
20:14 24.1 °C 9.2 °C 1011.7 hPa SSW 19.3 km/h 15.6 km/h 39 % 0 mm
20:19 23.8 °C 9.4 °C 1012.1 hPa SSW 13 km/h 11.4 km/h 40 % 0 mm
20:24 23.5 °C 9.1 °C 1012.1 hPa SW 20.9 km/h 13 km/h 40 % 0 mm
20:29 23.2 °C 9.2 °C 1012.4 hPa SSW 16.1 km/h 10.9 km/h 41 % 0 mm
20:34 22.9 °C 9 °C 1012.4 hPa SSW 16.7 km/h 12.1 km/h 41 % 0 mm
20:39 22.7 °C 9.2 °C 1012.4 hPa SSW 29.6 km/h 12.7 km/h 42 % 0 mm
20:44 22.6 °C 9 °C 1012.8 hPa SSW 13 km/h 9.8 km/h 42 % 0 mm
20:49 22.4 °C 9.2 °C 1012.8 hPa SSW 14.8 km/h 9.2 km/h 43 % 0 mm
20:54 22.3 °C 9.1 °C 1012.8 hPa SW 11.1 km/h 7.9 km/h 43 % 0 mm
20:59 22.2 °C 9 °C 1012.8 hPa SW 11.3 km/h 5.8 km/h 43 % 0 mm
21:04 22 °C 9.2 °C 1012.8 hPa North 18.5 km/h 12.7 km/h 44 % 0 mm
21:09 21.9 °C 9.4 °C 1013.1 hPa SSW 18.5 km/h 15.1 km/h 45 % 0 mm
21:14 21.7 °C 9.3 °C 1013.1 hPa SSW 20.4 km/h 12.1 km/h 45 % 0 mm
21:19 21.5 °C 10.3 °C 1013.4 hPa South 20.4 km/h 7.2 km/h 49 % 0 mm
21:24 20.8 °C 11.4 °C 1013.4 hPa SSE 18.5 km/h 10 km/h 55 % 0 mm
21:29 20.2 °C 11.6 °C 1013.4 hPa SE 20.4 km/h 7.6 km/h 58 % 0 mm
21:34 19.7 °C 11.7 °C 1013.4 hPa SE 14.8 km/h 11.9 km/h 60 % 0 mm
21:39 19.3 °C 11.8 °C 1013.8 hPa SSE 18.5 km/h 11.1 km/h 62 % 0 mm
21:44 19 °C 11.8 °C 1013.8 hPa SSE 11.1 km/h 9.5 km/h 63 % 0 mm
21:49 18.8 °C 11.8 °C 1013.8 hPa SSE 11.1 km/h 7.6 km/h 64 % 0 mm
21:54 18.6 °C 11.9 °C 1013.8 hPa SSE 11.1 km/h 8 km/h 65 % 0 mm
21:59 18.4 °C 11.7 °C 1013.8 hPa SSE 16.7 km/h 8.7 km/h 65 % 0 mm
22:04 18.2 °C 11.8 °C 1013.8 hPa SSE 20.4 km/h 6.9 km/h 66 % 0 mm
22:09 18.1 °C 11.8 °C 1013.8 hPa South 18.5 km/h 10.6 km/h 67 % 0 mm
22:14 17.9 °C 11.7 °C 1014.1 hPa South 14.8 km/h 7.1 km/h 67 % 0 mm
22:19 17.8 °C 11.8 °C 1014.1 hPa South 13 km/h 7.9 km/h 68 % 0 mm
22:24 17.7 °C 11.7 °C 1014.1 hPa South 14.8 km/h 7.1 km/h 68 % 0 mm
22:29 17.6 °C 11.8 °C 1014.1 hPa South 11.3 km/h 8.2 km/h 69 % 0 mm
22:34 17.4 °C 11.7 °C 1014.1 hPa South 16.7 km/h 5.8 km/h 69 % 0 mm
22:39 17.3 °C 11.6 °C 1014.1 hPa SSE 18.5 km/h 8.7 km/h 69 % 0 mm
22:44 17.2 °C 11.7 °C 1014.1 hPa SSE 11.1 km/h 5.5 km/h 70 % 0 mm
22:49 17.1 °C 11.6 °C 1014.1 hPa SSE 12.9 km/h 8.9 km/h 70 % 0 mm
22:54 16.9 °C 11.4 °C 1014.4 hPa SSE 13 km/h 6 km/h 70 % 0 mm
22:59 16.7 °C 11.2 °C 1014.4 hPa SSE 13 km/h 7.7 km/h 70 % 0 mm
23:04 16.6 °C 11.3 °C 1014.4 hPa SSE 7.4 km/h 5.6 km/h 71 % 0 mm
23:09 16.5 °C 11.2 °C 1014.4 hPa SSE 13 km/h 5.8 km/h 71 % 0 mm
23:14 16.4 °C 11.1 °C 1014.4 hPa SSE 11.1 km/h 3.4 km/h 71 % 0 mm
23:19 16.3 °C 11.3 °C 1014.4 hPa SSE 11.1 km/h 5 km/h 72 % 0 mm
23:24 16.2 °C 11.2 °C 1014.4 hPa SSE 13 km/h 3.9 km/h 72 % 0 mm
23:29 16.1 °C 11.1 °C 1014.4 hPa SSE 14.8 km/h 5.6 km/h 72 % 0 mm
23:34 16 °C 10.9 °C 1014.4 hPa SSE 7.4 km/h 3.5 km/h 72 % 0 mm
23:39 15.9 °C 11.1 °C 1014.4 hPa SSE 11.3 km/h 3.4 km/h 73 % 0 mm
23:44 15.8 °C 10.9 °C 1014.4 hPa South 7.4 km/h 4 km/h 73 % 0 mm
23:49 15.7 °C 10.8 °C 1014.4 hPa SSE 9.3 km/h 6.9 km/h 73 % 0 mm
23:54 15.6 °C 10.7 °C 1014.4 hPa SSE 11.1 km/h 7.7 km/h 73 % 0 mm
23:59 15.5 °C 10.9 °C 1014.4 hPa SSE 5.6 km/h 2.7 km/h 74 % 0 mm
Ararat Weather
Compliments of Weather Underground - 2 mb
Click here to send mail.


ABOUT

Live weather data from Ararat, Victoria, Australia, 3377
Data uploaded from Cumulus every 5 minutes to Weather Underground.
This site then downloads the raw data for formatting and display.
Metric and imperial data can be displayed. Graphs and historical data available.
Includes Sun and Moon times and rain image live from BOM.

Check out Ararat Weather on Facebook, Twitter and Google +

Help support ongoing costs by checking out the ads





Follow @AraratWeather